sensor_id;sensor_type;location;lat;lon;timestamp;pressure;altitude;pressure_sealevel;temperature;humidity
3206;BME280;1615;53.602;11.418;2024-01-06T00:00:49;100223.66;;;2.65;100.00
3206;BME280;1615;53.602;11.418;2024-01-06T00:03:14;100197.00;;;2.52;100.00
3206;BME280;1615;53.602;11.418;2024-01-06T00:05:40;100200.78;;;2.51;100.00
3206;BME280;1615;53.602;11.418;2024-01-06T00:08:05;99916.59;;;0.83;100.00
3206;BME280;1615;53.602;11.418;2024-01-06T00:10:31;100237.84;;;2.77;100.00
3206;BME280;1615;53.602;11.418;2024-01-06T00:12:56;100221.56;;;2.45;100.00
3206;BME280;1615;53.602;11.418;2024-01-06T00:15:22;100216.91;;;2.41;100.00
3206;BME280;1615;53.602;11.418;2024-01-06T00:17:47;100217.03;;;2.51;100.00
3206;BME280;1615;53.602;11.418;2024-01-06T00:20:13;100229.00;;;2.60;100.00
3206;BME280;1615;53.602;11.418;2024-01-06T00:22:38;100225.69;;;2.53;100.00
3206;BME280;1615;53.602;11.418;2024-01-06T00:25:04;100217.53;;;2.48;100.00
3206;BME280;1615;53.602;11.418;2024-01-06T00:27:29;100187.00;;;2.26;100.00
3206;BME280;1615;53.602;11.418;2024-01-06T00:29:54;100225.03;;;2.41;100.00
3206;BME280;1615;53.602;11.418;2024-01-06T00:32:20;100208.50;;;2.16;100.00
3206;BME280;1615;53.602;11.418;2024-01-06T00:34:45;100213.97;;;2.21;100.00
3206;BME280;1615;53.602;11.418;2024-01-06T00:37:11;100220.75;;;2.23;100.00
3206;BME280;1615;53.602;11.418;2024-01-06T00:39:36;100218.91;;;2.29;100.00
3206;BME280;1615;53.602;11.418;2024-01-06T00:42:02;100253.34;;;2.60;100.00
3206;BME280;1615;53.602;11.418;2024-01-06T00:44:27;100260.31;;;2.51;100.00
3206;BME280;1615;53.602;11.418;2024-01-06T00:46:52;100240.19;;;2.42;100.00
3206;BME280;1615;53.602;11.418;2024-01-06T00:49:18;100239.88;;;2.38;100.00
3206;BME280;1615;53.602;11.418;2024-01-06T00:51:43;100188.50;;;2.17;100.00
3206;BME280;1615;53.602;11.418;2024-01-06T00:54:08;100273.88;;;2.56;100.00
3206;BME280;1615;53.602;11.418;2024-01-06T00:56:34;100247.81;;;2.50;100.00
3206;BME280;1615;53.602;11.418;2024-01-06T00:58:59;100224.31;;;2.29;100.00
3206;BME280;1615;53.602;11.418;2024-01-06T01:01:24;100224.31;;;2.29;100.00
3206;BME280;1615;53.602;11.418;2024-01-06T01:03:49;100260.50;;;2.44;100.00
3206;BME280;1615;53.602;11.418;2024-01-06T01:06:15;100217.41;;;2.38;100.00
3206;BME280;1615;53.602;11.418;2024-01-06T01:08:40;100208.94;;;2.29;100.00
3206;BME280;1615;53.602;11.418;2024-01-06T01:11:05;100160.56;;;1.63;100.00
3206;BME280;1615;53.602;11.418;2024-01-06T01:13:31;100244.75;;;2.41;100.00
3206;BME280;1615;53.602;11.418;2024-01-06T01:15:56;100272.22;;;2.55;100.00
3206;BME280;1615;53.602;11.418;2024-01-06T01:18:21;100265.72;;;2.51;100.00
3206;BME280;1615;53.602;11.418;2024-01-06T01:20:47;100272.09;;;2.45;100.00
3206;BME280;1615;53.602;11.418;2024-01-06T01:23:12;100215.28;;;1.97;100.00
3206;BME280;1615;53.602;11.418;2024-01-06T01:25:37;100245.34;;;2.22;100.00
3206;BME280;1615;53.602;11.418;2024-01-06T01:28:03;100266.69;;;2.45;100.00
3206;BME280;1615;53.602;11.418;2024-01-06T01:30:29;100271.31;;;2.44;100.00
3206;BME280;1615;53.602;11.418;2024-01-06T01:32:54;100275.41;;;2.47;100.00
3206;BME280;1615;53.602;11.418;2024-01-06T01:35:19;100236.03;;;2.13;100.00
3206;BME280;1615;53.602;11.418;2024-01-06T01:37:45;100234.97;;;2.14;100.00
3206;BME280;1615;53.602;11.418;2024-01-06T01:40:10;100056.66;;;0.90;100.00
3206;BME280;1615;53.602;11.418;2024-01-06T01:42:36;100264.13;;;2.12;100.00
3206;BME280;1615;53.602;11.418;2024-01-06T01:45:03;100280.25;;;2.23;100.00
3206;BME280;1615;53.602;11.418;2024-01-06T01:47:28;100288.66;;;2.27;100.00
3206;BME280;1615;53.602;11.418;2024-01-06T01:49:54;100237.03;;;2.07;100.00
3206;BME280;1615;53.602;11.418;2024-01-06T01:52:20;100287.66;;;2.33;100.00
3206;BME280;1615;53.602;11.418;2024-01-06T01:54:46;100212.53;;;1.92;100.00
3206;BME280;1615;53.602;11.418;2024-01-06T01:57:12;100275.09;;;2.43;100.00
3206;BME280;1615;53.602;11.418;2024-01-06T01:59:39;100290.13;;;2.56;100.00
3206;BME280;1615;53.602;11.418;2024-01-06T02:02:04;100082.31;;;1.09;100.00
3206;BME280;1615;53.602;11.418;2024-01-06T02:04:30;100314.84;;;2.64;100.00
3206;BME280;1615;53.602;11.418;2024-01-06T02:06:55;100316.78;;;2.69;100.00
3206;BME280;1615;53.602;11.418;2024-01-06T02:09:20;100286.41;;;2.40;100.00
3206;BME280;1615;53.602;11.418;2024-01-06T02:11:48;100329.03;;;2.55;100.00
3206;BME280;1615;53.602;11.418;2024-01-06T02:14:13;100311.75;;;2.56;100.00
3206;BME280;1615;53.602;11.418;2024-01-06T02:16:38;100285.78;;;2.33;100.00
3206;BME280;1615;53.602;11.418;2024-01-06T02:19:05;100312.25;;;2.53;100.00
3206;BME280;1615;53.602;11.418;2024-01-06T02:21:32;100206.09;;;1.76;100.00
3206;BME280;1615;53.602;11.418;2024-01-06T02:24:00;100331.63;;;2.45;100.00
3206;BME280;1615;53.602;11.418;2024-01-06T02:26:26;100339.72;;;2.45;100.00
3206;BME280;1615;53.602;11.418;2024-01-06T02:28:51;100340.94;;;2.54;100.00
3206;BME280;1615;53.602;11.418;2024-01-06T02:31:16;100293.00;;;2.28;100.00
3206;BME280;1615;53.602;11.418;2024-01-06T02:33:42;100333.28;;;2.46;100.00
3206;BME280;1615;53.602;11.418;2024-01-06T02:36:07;100343.00;;;2.68;100.00
3206;BME280;1615;53.602;11.418;2024-01-06T02:38:32;100301.31;;;2.43;100.00
3206;BME280;1615;53.602;11.418;2024-01-06T02:40:58;100338.91;;;2.66;100.00
3206;BME280;1615;53.602;11.418;2024-01-06T02:43:23;100322.06;;;2.59;100.00
3206;BME280;1615;53.602;11.418;2024-01-06T02:45:48;100337.66;;;2.73;100.00
3206;BME280;1615;53.602;11.418;2024-01-06T02:48:14;100309.31;;;2.54;100.00
3206;BME280;1615;53.602;11.418;2024-01-06T02:50:39;100346.59;;;2.74;100.00
3206;BME280;1615;53.602;11.418;2024-01-06T02:53:04;100317.97;;;2.56;100.00
3206;BME280;1615;53.602;11.418;2024-01-06T02:55:30;100355.34;;;2.59;100.00
3206;BME280;1615;53.602;11.418;2024-01-06T02:57:55;100294.31;;;2.25;100.00
3206;BME280;1615;53.602;11.418;2024-01-06T03:00:20;100359.44;;;2.62;100.00
3206;BME280;1615;53.602;11.418;2024-01-06T03:02:46;100331.13;;;2.48;100.00
3206;BME280;1615;53.602;11.418;2024-01-06T03:05:11;100390.16;;;2.51;100.00
3206;BME280;1615;53.602;11.418;2024-01-06T03:07:36;100351.81;;;2.59;100.00
3206;BME280;1615;53.602;11.418;2024-01-06T03:10:02;100355.16;;;2.66;100.00
3206;BME280;1615;53.602;11.418;2024-01-06T03:12:27;100339.16;;;2.43;100.00
3206;BME280;1615;53.602;11.418;2024-01-06T03:14:53;100361.50;;;2.55;100.00
3206;BME280;1615;53.602;11.418;2024-01-06T03:17:18;100343.16;;;2.57;100.00
3206;BME280;1615;53.602;11.418;2024-01-06T03:19:44;100334.38;;;2.50;100.00
3206;BME280;1615;53.602;11.418;2024-01-06T03:22:09;100373.59;;;2.69;100.00
3206;BME280;1615;53.602;11.418;2024-01-06T03:24:34;100373.34;;;2.70;100.00
3206;BME280;1615;53.602;11.418;2024-01-06T03:26:59;100368.19;;;2.69;100.00
3206;BME280;1615;53.602;11.418;2024-01-06T03:29:25;100386.13;;;2.75;100.00
3206;BME280;1615;53.602;11.418;2024-01-06T03:31:50;100347.56;;;2.63;100.00
3206;BME280;1615;53.602;11.418;2024-01-06T03:34:15;100388.13;;;2.84;100.00
3206;BME280;1615;53.602;11.418;2024-01-06T03:36:41;100388.41;;;2.83;100.00
3206;BME280;1615;53.602;11.418;2024-01-06T03:39:07;100340.09;;;2.32;100.00
3206;BME280;1615;53.602;11.418;2024-01-06T03:41:32;100355.66;;;2.63;100.00
3206;BME280;1615;53.602;11.418;2024-01-06T03:43:58;100396.00;;;2.86;100.00
3206;BME280;1615;53.602;11.418;2024-01-06T03:46:24;100357.78;;;2.61;100.00
3206;BME280;1615;53.602;11.418;2024-01-06T03:48:49;100399.09;;;2.73;100.00
3206;BME280;1615;53.602;11.418;2024-01-06T03:51:15;100413.81;;;2.82;100.00
3206;BME280;1615;53.602;11.418;2024-01-06T03:53:40;100399.03;;;2.68;100.00
3206;BME280;1615;53.602;11.418;2024-01-06T03:56:06;100364.59;;;2.42;100.00
3206;BME280;1615;53.602;11.418;2024-01-06T03:58:32;100395.94;;;2.59;100.00
3206;BME280;1615;53.602;11.418;2024-01-06T04:00:57;100398.66;;;2.59;100.00
3206;BME280;1615;53.602;11.418;2024-01-06T04:03:22;100245.06;;;1.64;100.00
3206;BME280;1615;53.602;11.418;2024-01-06T04:05:48;100416.19;;;2.57;100.00
3206;BME280;1615;53.602;11.418;2024-01-06T04:08:13;100403.75;;;2.56;100.00
3206;BME280;1615;53.602;11.418;2024-01-06T04:10:38;100400.00;;;2.40;100.00
3206;BME280;1615;53.602;11.418;2024-01-06T04:13:06;100417.81;;;2.58;100.00
3206;BME280;1615;53.602;11.418;2024-01-06T04:15:32;100421.75;;;2.67;100.00
3206;BME280;1615;53.602;11.418;2024-01-06T04:18:02;100417.97;;;2.68;100.00
3206;BME280;1615;53.602;11.418;2024-01-06T04:20:28;100330.31;;;2.09;100.00
3206;BME280;1615;53.602;11.418;2024-01-06T04:22:53;100412.03;;;2.71;100.00
3206;BME280;1615;53.602;11.418;2024-01-06T04:25:18;100423.06;;;2.64;100.00
3206;BME280;1615;53.602;11.418;2024-01-06T04:27:44;100439.59;;;2.68;100.00
3206;BME280;1615;53.602;11.418;2024-01-06T04:30:11;100427.97;;;2.67;100.00
3206;BME280;1615;53.602;11.418;2024-01-06T04:32:37;100437.63;;;2.63;100.00
3206;BME280;1615;53.602;11.418;2024-01-06T04:35:02;100368.22;;;2.31;100.00
3206;BME280;1615;53.602;11.418;2024-01-06T04:37:28;100426.09;;;2.51;100.00
3206;BME280;1615;53.602;11.418;2024-01-06T04:39:53;100302.03;;;1.79;100.00
3206;BME280;1615;53.602;11.418;2024-01-06T04:42:18;100439.03;;;2.66;100.00
3206;BME280;1615;53.602;11.418;2024-01-06T04:44:44;100396.22;;;2.41;100.00
3206;BME280;1615;53.602;11.418;2024-01-06T04:47:10;100442.66;;;2.55;100.00
3206;BME280;1615;53.602;11.418;2024-01-06T04:49:35;100449.78;;;2.61;100.00
3206;BME280;1615;53.602;11.418;2024-01-06T04:52:00;100455.00;;;2.46;100.00
3206;BME280;1615;53.602;11.418;2024-01-06T04:54:26;100455.22;;;2.44;100.00
3206;BME280;1615;53.602;11.418;2024-01-06T04:56:51;100465.22;;;2.44;100.00
3206;BME280;1615;53.602;11.418;2024-01-06T04:59:16;100460.88;;;2.43;100.00
3206;BME280;1615;53.602;11.418;2024-01-06T05:01:41;100461.78;;;2.32;100.00
3206;BME280;1615;53.602;11.418;2024-01-06T05:04:07;100196.25;;;0.66;100.00
3206;BME280;1615;53.602;11.418;2024-01-06T05:06:32;100433.53;;;2.06;100.00
3206;BME280;1615;53.602;11.418;2024-01-06T05:08:57;100491.16;;;2.40;100.00
3206;BME280;1615;53.602;11.418;2024-01-06T05:11:22;100436.56;;;2.10;100.00
3206;BME280;1615;53.602;11.418;2024-01-06T05:13:48;100373.19;;;1.68;100.00
3206;BME280;1615;53.602;11.418;2024-01-06T05:16:13;100462.44;;;2.39;100.00
3206;BME280;1615;53.602;11.418;2024-01-06T05:18:38;100465.56;;;2.31;100.00
3206;BME280;1615;53.602;11.418;2024-01-06T05:21:04;100468.91;;;2.38;100.00
3206;BME280;1615;53.602;11.418;2024-01-06T05:23:29;100476.63;;;2.46;100.00
3206;BME280;1615;53.602;11.418;2024-01-06T05:25:54;100460.72;;;2.33;100.00
3206;BME280;1615;53.602;11.418;2024-01-06T05:28:20;100491.69;;;2.42;100.00
3206;BME280;1615;53.602;11.418;2024-01-06T05:30:45;100483.91;;;2.29;100.00
3206;BME280;1615;53.602;11.418;2024-01-06T05:33:12;100502.44;;;2.37;100.00
3206;BME280;1615;53.602;11.418;2024-01-06T05:35:41;100280.03;;;1.04;100.00
3206;BME280;1615;53.602;11.418;2024-01-06T05:38:06;100447.22;;;2.00;100.00
3206;BME280;1615;53.602;11.418;2024-01-06T05:40:32;100502.91;;;2.34;100.00
3206;BME280;1615;53.602;11.418;2024-01-06T05:42:57;100214.38;;;0.54;100.00
3206;BME280;1615;53.602;11.418;2024-01-06T05:45:22;100428.19;;;1.78;100.00
3206;BME280;1615;53.602;11.418;2024-01-06T05:47:48;100491.97;;;2.24;100.00
3206;BME280;1615;53.602;11.418;2024-01-06T05:50:15;100522.84;;;2.28;100.00
3206;BME280;1615;53.602;11.418;2024-01-06T05:52:41;100520.31;;;2.21;100.00
3206;BME280;1615;53.602;11.418;2024-01-06T05:55:06;100499.81;;;2.09;100.00
3206;BME280;1615;53.602;11.418;2024-01-06T05:57:32;100531.69;;;2.23;100.00
3206;BME280;1615;53.602;11.418;2024-01-06T05:59:57;100538.31;;;2.16;100.00
3206;BME280;1615;53.602;11.418;2024-01-06T06:02:23;100526.25;;;2.07;100.00
3206;BME280;1615;53.602;11.418;2024-01-06T06:04:48;100513.72;;;2.01;100.00
3206;BME280;1615;53.602;11.418;2024-01-06T06:07:13;100510.94;;;1.96;100.00
3206;BME280;1615;53.602;11.418;2024-01-06T06:09:39;100542.38;;;2.02;100.00
3206;BME280;1615;53.602;11.418;2024-01-06T06:12:05;100561.59;;;2.17;100.00
3206;BME280;1615;53.602;11.418;2024-01-06T06:14:31;100512.75;;;1.90;100.00
3206;BME280;1615;53.602;11.418;2024-01-06T06:16:56;100423.00;;;1.44;100.00
3206;BME280;1615;53.602;11.418;2024-01-06T06:19:21;100566.59;;;2.25;100.00
3206;BME280;1615;53.602;11.418;2024-01-06T06:21:47;100577.75;;;2.28;100.00
3206;BME280;1615;53.602;11.418;2024-01-06T06:24:12;100562.88;;;2.14;100.00
3206;BME280;1615;53.602;11.418;2024-01-06T06:26:38;100557.81;;;2.01;100.00
3206;BME280;1615;53.602;11.418;2024-01-06T06:29:04;100476.66;;;1.68;100.00
3206;BME280;1615;53.602;11.418;2024-01-06T06:31:29;100622.13;;;2.16;100.00
3206;BME280;1615;53.602;11.418;2024-01-06T06:33:54;100604.84;;;2.17;100.00
3206;BME280;1615;53.602;11.418;2024-01-06T06:36:19;100531.13;;;1.77;100.00
3206;BME280;1615;53.602;11.418;2024-01-06T06:38:45;100612.56;;;2.25;100.00
3206;BME280;1615;53.602;11.418;2024-01-06T06:41:10;100612.06;;;2.28;100.00
3206;BME280;1615;53.602;11.418;2024-01-06T06:43:35;100425.78;;;1.21;100.00
3206;BME280;1615;53.602;11.418;2024-01-06T06:46:01;100557.94;;;1.95;100.00
3206;BME280;1615;53.602;11.418;2024-01-06T06:48:26;100609.78;;;2.20;100.00
3206;BME280;1615;53.602;11.418;2024-01-06T06:50:51;100611.31;;;2.16;100.00
3206;BME280;1615;53.602;11.418;2024-01-06T06:53:17;100609.19;;;2.18;100.00
3206;BME280;1615;53.602;11.418;2024-01-06T06:55:42;100642.00;;;2.38;100.00
3206;BME280;1615;53.602;11.418;2024-01-06T06:58:08;100642.25;;;2.36;100.00
3206;BME280;1615;53.602;11.418;2024-01-06T07:00:34;100598.56;;;2.00;100.00
3206;BME280;1615;53.602;11.418;2024-01-06T07:03:00;100641.59;;;2.29;100.00
3206;BME280;1615;53.602;11.418;2024-01-06T07:05:25;100653.81;;;2.32;100.00
3206;BME280;1615;53.602;11.418;2024-01-06T07:07:51;100627.72;;;2.26;100.00
3206;BME280;1615;53.602;11.418;2024-01-06T07:10:16;100728.66;;;2.43;100.00
3206;BME280;1615;53.602;11.418;2024-01-06T07:12:41;100670.91;;;2.21;100.00
3206;BME280;1615;53.602;11.418;2024-01-06T07:15:08;100671.38;;;2.18;100.00
3206;BME280;1615;53.602;11.418;2024-01-06T07:17:35;100676.59;;;2.08;100.00
3206;BME280;1615;53.602;11.418;2024-01-06T07:20:00;100648.41;;;2.04;100.00
3206;BME280;1615;53.602;11.418;2024-01-06T07:22:25;100673.19;;;2.29;100.00
3206;BME280;1615;53.602;11.418;2024-01-06T07:24:51;100617.72;;;1.98;100.00
3206;BME280;1615;53.602;11.418;2024-01-06T07:27:16;100675.34;;;2.27;100.00
3206;BME280;1615;53.602;11.418;2024-01-06T07:29:41;100573.22;;;1.61;100.00
3206;BME280;1615;53.602;11.418;2024-01-06T07:32:07;100687.13;;;2.21;100.00
3206;BME280;1615;53.602;11.418;2024-01-06T07:34:32;100670.22;;;2.14;100.00
3206;BME280;1615;53.602;11.418;2024-01-06T07:36:58;100686.16;;;2.27;100.00
3206;BME280;1615;53.602;11.418;2024-01-06T07:39:23;100656.00;;;2.07;100.00
3206;BME280;1615;53.602;11.418;2024-01-06T07:41:51;100608.03;;;1.86;100.00
3206;BME280;1615;53.602;11.418;2024-01-06T07:44:17;100693.91;;;2.35;100.00
3206;BME280;1615;53.602;11.418;2024-01-06T07:46:48;100649.56;;;2.08;100.00
3206;BME280;1615;53.602;11.418;2024-01-06T07:49:13;100595.56;;;1.85;100.00
3206;BME280;1615;53.602;11.418;2024-01-06T07:51:39;100710.78;;;2.42;100.00
3206;BME280;1615;53.602;11.418;2024-01-06T07:54:04;100719.97;;;2.41;100.00
3206;BME280;1615;53.602;11.418;2024-01-06T07:56:31;100705.84;;;2.39;100.00
3206;BME280;1615;53.602;11.418;2024-01-06T07:58:57;100714.41;;;2.47;100.00
3206;BME280;1615;53.602;11.418;2024-01-06T08:01:22;100532.13;;;1.20;100.00
3206;BME280;1615;53.602;11.418;2024-01-06T08:03:47;100697.47;;;2.24;100.00
3206;BME280;1615;53.602;11.418;2024-01-06T08:06:13;100708.97;;;2.31;100.00
3206;BME280;1615;53.602;11.418;2024-01-06T08:08:38;100732.03;;;2.50;100.00
3206;BME280;1615;53.602;11.418;2024-01-06T08:11:03;100726.53;;;2.45;100.00
3206;BME280;1615;53.602;11.418;2024-01-06T08:13:29;100685.84;;;2.12;100.00
3206;BME280;1615;53.602;11.418;2024-01-06T08:15:54;100732.88;;;2.50;100.00
3206;BME280;1615;53.602;11.418;2024-01-06T08:18:19;100746.34;;;2.62;100.00
3206;BME280;1615;53.602;11.418;2024-01-06T08:20:46;100592.84;;;1.68;100.00
3206;BME280;1615;53.602;11.418;2024-01-06T08:23:11;100744.13;;;2.59;100.00
3206;BME280;1615;53.602;11.418;2024-01-06T08:25:37;100699.56;;;2.22;100.00
3206;BME280;1615;53.602;11.418;2024-01-06T08:28:02;100723.44;;;2.53;100.00
3206;BME280;1615;53.602;11.418;2024-01-06T08:30:28;100748.88;;;2.68;100.00
3206;BME280;1615;53.602;11.418;2024-01-06T08:32:53;100745.28;;;2.63;100.00
3206;BME280;1615;53.602;11.418;2024-01-06T08:35:18;100769.72;;;2.68;100.00
3206;BME280;1615;53.602;11.418;2024-01-06T08:37:44;100628.97;;;1.79;100.00
3206;BME280;1615;53.602;11.418;2024-01-06T08:40:10;100713.19;;;2.27;100.00
3206;BME280;1615;53.602;11.418;2024-01-06T08:42:35;100777.31;;;2.54;100.00
3206;BME280;1615;53.602;11.418;2024-01-06T08:45:01;100705.47;;;2.19;100.00
3206;BME280;1615;53.602;11.418;2024-01-06T08:47:27;100781.72;;;2.72;100.00
3206;BME280;1615;53.602;11.418;2024-01-06T08:49:52;100756.91;;;2.63;100.00
3206;BME280;1615;53.602;11.418;2024-01-06T08:52:17;100708.81;;;2.37;100.00
3206;BME280;1615;53.602;11.418;2024-01-06T08:54:43;100565.75;;;1.40;100.00
3206;BME280;1615;53.602;11.418;2024-01-06T08:57:08;100776.13;;;2.62;100.00
3206;BME280;1615;53.602;11.418;2024-01-06T08:59:33;100776.44;;;2.65;100.00
3206;BME280;1615;53.602;11.418;2024-01-06T09:01:58;100794.28;;;2.78;100.00
3206;BME280;1615;53.602;11.418;2024-01-06T09:04:24;100769.88;;;2.61;100.00
3206;BME280;1615;53.602;11.418;2024-01-06T09:06:49;100748.75;;;2.47;100.00
3206;BME280;1615;53.602;11.418;2024-01-06T09:09:15;100793.69;;;2.76;100.00
3206;BME280;1615;53.602;11.418;2024-01-06T09:11:41;100790.94;;;2.87;100.00
3206;BME280;1615;53.602;11.418;2024-01-06T09:14:09;100757.09;;;2.73;100.00
3206;BME280;1615;53.602;11.418;2024-01-06T09:16:35;100748.88;;;2.68;100.00
3206;BME280;1615;53.602;11.418;2024-01-06T09:19:01;100822.59;;;2.87;100.00
3206;BME280;1615;53.602;11.418;2024-01-06T09:21:27;100829.75;;;2.93;100.00
3206;BME280;1615;53.602;11.418;2024-01-06T09:23:52;100836.44;;;3.02;100.00
3206;BME280;1615;53.602;11.418;2024-01-06T09:26:17;100841.03;;;3.01;100.00
3206;BME280;1615;53.602;11.418;2024-01-06T09:28:42;100853.28;;;3.04;100.00
3206;BME280;1615;53.602;11.418;2024-01-06T09:31:08;100679.31;;;1.96;100.00
3206;BME280;1615;53.602;11.418;2024-01-06T09:33:33;100762.09;;;2.37;100.00
3206;BME280;1615;53.602;11.418;2024-01-06T09:35:59;100843.13;;;2.83;100.00
3206;BME280;1615;53.602;11.418;2024-01-06T09:38:24;100855.63;;;3.00;100.00
3206;BME280;1615;53.602;11.418;2024-01-06T09:40:51;100844.13;;;2.93;100.00
3206;BME280;1615;53.602;11.418;2024-01-06T09:43:18;100867.94;;;3.08;100.00
3206;BME280;1615;53.602;11.418;2024-01-06T09:45:46;100848.78;;;2.70;100.00
3206;BME280;1615;53.602;11.418;2024-01-06T09:48:14;100874.41;;;2.79;100.00
3206;BME280;1615;53.602;11.418;2024-01-06T09:50:43;100841.06;;;2.62;100.00
3206;BME280;1615;53.602;11.418;2024-01-06T09:53:11;100878.41;;;2.88;100.00
3206;BME280;1615;53.602;11.418;2024-01-06T09:55:37;100867.38;;;2.78;100.00
3206;BME280;1615;53.602;11.418;2024-01-06T09:58:04;100857.41;;;2.67;100.00
3206;BME280;1615;53.602;11.418;2024-01-06T10:00:30;100849.19;;;2.62;100.00
3206;BME280;1615;53.602;11.418;2024-01-06T10:02:55;100889.69;;;2.85;100.00
3206;BME280;1615;53.602;11.418;2024-01-06T10:05:21;100873.03;;;2.65;100.00
3206;BME280;1615;53.602;11.418;2024-01-06T10:07:47;100865.31;;;2.57;100.00
3206;BME280;1615;53.602;11.418;2024-01-06T10:10:13;100890.66;;;2.79;100.00
3206;BME280;1615;53.602;11.418;2024-01-06T10:12:40;100888.72;;;2.91;100.00
3206;BME280;1615;53.602;11.418;2024-01-06T10:15:07;100848.31;;;2.73;100.00
3206;BME280;1615;53.602;11.418;2024-01-06T10:17:33;100867.56;;;2.88;100.00
3206;BME280;1615;53.602;11.418;2024-01-06T10:19:59;100871.81;;;2.84;98.77
3206;BME280;1615;53.602;11.418;2024-01-06T10:22:25;100899.91;;;2.94;98.84
3206;BME280;1615;53.602;11.418;2024-01-06T10:24:50;100831.88;;;2.63;99.21
3206;BME280;1615;53.602;11.418;2024-01-06T10:27:16;100910.50;;;3.24;99.53
3206;BME280;1615;53.602;11.418;2024-01-06T10:29:41;100880.69;;;3.07;98.22
3206;BME280;1615;53.602;11.418;2024-01-06T10:32:07;100902.19;;;3.14;97.86
3206;BME280;1615;53.602;11.418;2024-01-06T10:34:33;100909.84;;;3.17;97.61
3206;BME280;1615;53.602;11.418;2024-01-06T10:36:58;100869.44;;;2.87;97.68
3206;BME280;1615;53.602;11.418;2024-01-06T10:39:24;100659.25;;;1.41;98.08
3206;BME280;1615;53.602;11.418;2024-01-06T10:41:52;100888.41;;;2.87;98.47
3206;BME280;1615;53.602;11.418;2024-01-06T10:44:19;100804.69;;;2.18;98.35
3206;BME280;1615;53.602;11.418;2024-01-06T10:46:46;100920.03;;;2.87;99.38
3206;BME280;1615;53.602;11.418;2024-01-06T10:49:14;100917.84;;;2.84;99.31
3206;BME280;1615;53.602;11.418;2024-01-06T10:51:40;100883.84;;;2.65;99.17
3206;BME280;1615;53.602;11.418;2024-01-06T10:54:06;100845.47;;;2.40;99.93
3206;BME280;1615;53.602;11.418;2024-01-06T10:56:36;100919.16;;;2.70;99.57
3206;BME280;1615;53.602;11.418;2024-01-06T10:59:03;100924.06;;;2.84;100.00
3206;BME280;1615;53.602;11.418;2024-01-06T11:01:29;100877.31;;;2.49;100.00
3206;BME280;1615;53.602;11.418;2024-01-06T11:03:55;100922.56;;;2.65;100.00
3206;BME280;1615;53.602;11.418;2024-01-06T11:06:21;100951.63;;;2.70;100.00
3206;BME280;1615;53.602;11.418;2024-01-06T11:09:04;100935.59;;;2.80;100.00
3206;BME280;1615;53.602;11.418;2024-01-06T11:11:32;100938.88;;;2.82;100.00
3206;BME280;1615;53.602;11.418;2024-01-06T11:14:25;100939.94;;;2.81;100.00
3206;BME280;1615;53.602;11.418;2024-01-06T11:16:52;100932.78;;;2.75;100.00
3206;BME280;1615;53.602;11.418;2024-01-06T11:22:29;100952.22;;;2.49;100.00
3206;BME280;1615;53.602;11.418;2024-01-06T11:25:07;100834.44;;;1.84;100.00
3206;BME280;1615;53.602;11.418;2024-01-06T11:27:33;100945.75;;;2.73;100.00
3206;BME280;1615;53.602;11.418;2024-01-06T11:30:02;100920.72;;;2.43;100.00
3206;BME280;1615;53.602;11.418;2024-01-06T11:32:31;100950.34;;;2.49;100.00
3206;BME280;1615;53.602;11.418;2024-01-06T11:35:29;100950.81;;;2.46;100.00
3206;BME280;1615;53.602;11.418;2024-01-06T11:37:56;100944.56;;;2.57;100.00
3206;BME280;1615;53.602;11.418;2024-01-06T11:40:25;100930.59;;;2.49;100.00
3206;BME280;1615;53.602;11.418;2024-01-06T11:42:58;100906.94;;;2.56;100.00
3206;BME280;1615;53.602;11.418;2024-01-06T11:45:24;100886.63;;;2.30;99.63
3206;BME280;1615;53.602;11.418;2024-01-06T11:47:54;100940.91;;;2.75;99.29
3206;BME280;1615;53.602;11.418;2024-01-06T11:50:21;100944.94;;;2.49;99.01
3206;BME280;1615;53.602;11.418;2024-01-06T11:52:46;100937.06;;;2.48;100.00
3206;BME280;1615;53.602;11.418;2024-01-06T11:55:12;100953.97;;;2.55;99.63
3206;BME280;1615;53.602;11.418;2024-01-06T11:57:37;100959.41;;;2.55;99.53
3206;BME280;1615;53.602;11.418;2024-01-06T12:00:03;100850.91;;;2.05;98.88
3206;BME280;1615;53.602;11.418;2024-01-06T12:02:29;100906.84;;;2.39;98.40
3206;BME280;1615;53.602;11.418;2024-01-06T12:04:54;100955.84;;;2.66;97.95
3206;BME280;1615;53.602;11.418;2024-01-06T12:07:21;100887.22;;;2.21;98.49
3206;BME280;1615;53.602;11.418;2024-01-06T12:09:50;100914.97;;;2.39;99.01
3206;BME280;1615;53.602;11.418;2024-01-06T12:12:16;100950.81;;;2.69;98.17
3206;BME280;1615;53.602;11.418;2024-01-06T12:14:42;100959.97;;;2.68;99.24
3206;BME280;1615;53.602;11.418;2024-01-06T12:17:09;100940.00;;;2.69;99.16
3206;BME280;1615;53.602;11.418;2024-01-06T12:19:35;100867.81;;;2.24;97.72
3206;BME280;1615;53.602;11.418;2024-01-06T12:22:01;100967.84;;;2.70;97.94
3206;BME280;1615;53.602;11.418;2024-01-06T12:24:28;100963.06;;;2.72;97.94
3206;BME280;1615;53.602;11.418;2024-01-06T12:26:55;100827.03;;;1.91;97.41
3206;BME280;1615;53.602;11.418;2024-01-06T12:29:21;100931.19;;;2.51;97.27
3206;BME280;1615;53.602;11.418;2024-01-06T12:31:47;100960.47;;;2.65;97.23
3206;BME280;1615;53.602;11.418;2024-01-06T12:34:12;100968.19;;;2.73;96.90
3206;BME280;1615;53.602;11.418;2024-01-06T12:36:38;100970.34;;;2.71;97.56
3206;BME280;1615;53.602;11.418;2024-01-06T12:39:04;101003.88;;;2.59;98.40
3206;BME280;1615;53.602;11.418;2024-01-06T12:41:30;100971.63;;;2.69;99.71
3206;BME280;1615;53.602;11.418;2024-01-06T12:43:58;100990.44;;;2.87;100.00
3206;BME280;1615;53.602;11.418;2024-01-06T12:46:24;100964.81;;;2.78;100.00
3206;BME280;1615;53.602;11.418;2024-01-06T12:48:49;100961.72;;;2.86;100.00
3206;BME280;1615;53.602;11.418;2024-01-06T12:51:14;100918.34;;;2.69;100.00
3206;BME280;1615;53.602;11.418;2024-01-06T12:53:40;100993.25;;;3.03;100.00
3206;BME280;1615;53.602;11.418;2024-01-06T12:56:05;100815.88;;;1.99;100.00
3206;BME280;1615;53.602;11.418;2024-01-06T12:58:32;100965.59;;;2.90;100.00